Essex, New York
Current Conditions -  °F | °C
As of 1:54 AM on Wednesday 26 Nov 2014 (Local Time) from KBTV Reporting Station
Clear Clear  
Wind Chill: 31°   Ceiling: Unl
Heat Index: 39°   Visibility: 10mi
Dew Point: 21°   Wind: 14mph
Humidity: 49%   Direction: 310°NW
Pressure: 30.16"   Gusts: 20mph
Location:  44.31°N, 73.35°W
Report Text: KBTV 260654Z 31012G17KT 10SM CLR 04/M06 A3016 RMK AO2 PK WND 29026/0618 SLP217 T00391061
Loading
Personal Weather Stations






























Interactive Weather Map New forecast layout! Learn more

10-Day Weather Forecast

Advertisements
Track Severe Weather on mobile